Alyeska Resort
Max's Hourly Weather Roundup
ALYESKA_MAX 2/20/2018
Click Here for Graph

        DATE  TIME   Air  Wind  Wind  Wind  BATT   Rel
                    Temp   Spd   Dir  Gust  Volt  Hum%
                      F   MPH   AVG   MPH   AVG   AVG

   2/20/2018 05:00    28     9   239    13 12.86    58
   2/20/2018 04:00    31     5   286     8 12.87    47
   2/20/2018 03:00    30     4   210     8 12.88    52
   2/20/2018 02:00    31     2   184     6 12.90    50
   2/20/2018 01:00    29     2   276     4 12.91    57
   2/19/2018 24:00    30     3   117     6 12.93    55
   2/19/2018 23:00    29     2   129     5 12.95    59
   2/19/2018 22:00    28     2    85     5 12.97    60
   2/19/2018 21:00    28     5   168     7 13.00    63
   2/19/2018 20:00    28     5   158     8 13.05    68
   2/19/2018 19:00    26     3   159     5 13.14    75
   2/19/2018 18:00    27     5   161     8 13.57    80
   2/19/2018 17:00    26     3   215     8 13.80    91
   2/19/2018 16:00    25     1    83     5 13.75    88
   2/19/2018 15:00    26     1   178     4 13.73    99
   2/19/2018 14:00    24     3   138     5 13.74   100
   2/19/2018 13:00    20     2   190     4 13.78   100
   2/19/2018 12:00    19     2   106     6 13.89   100
   2/19/2018 11:00    19     1   182     3 13.84   100
   2/19/2018 10:00    19     1   172     3 13.04   100
   2/19/2018 09:00    18     1   140     2 12.82   100
   2/19/2018 08:00    19     2   128     2 12.82   100
   2/19/2018 07:00    19     1   155     3 12.83   100
   2/19/2018 06:00    19     2   237     4 12.85   100


Click Here for Graph